Terminal Aerodrome Forecast
Issued by NWS

Home | Current Version | Previous Version | Graphics & Text | Print | Product List | Glossary On
Versions: 1 2 3 4 5 6 7 8 9 10 11 12 13 14 15 16 17 18 19 20 21 22 23 24
375
FTUS43 KBIS 241737 AAB
TAFMOT
TAF AMD
KMOT 241737Z 2418/2518 20012G18KT P6SM SCT110
     FM250100 24005KT P6SM SCT250
     FM250500 02004KT 4SM -TSRA OVC040CB
     FM251200 06009KT P6SM -SHRA VCTS BKN045CB=

USA.gov is the U.S. government's official web portal to all federal, state and local government web resources and services.